Google Maps JavaScript API Example
Pilot Flight Report # 94594 Submitted by : AST775 on 2020-10-25
Date: 2020-10-25Aircraft: DeHavilland DHC6 Twin Otter - Wheeled
Flight No.: Not AvailableDistance (Nm): 134.07
Departure: 1S2 - Darrington MunDestination: CZGF - Grand Forks
 TimeFuelWeightSpeeds  
Out (Taxi)1442Z817 lbs9599 lbs Flight RulesVFR
Off (Takeoff)1442Z 9596 lbs86 ktsFlight Level10000
On (Landing)1544Z 8997 lbs87 ktsVSTD-334 ft/min
In (Ramp)1544Z214 lbs8997 lbs ZFW8783 lbs
Flight1.00  -  1:02597 lbs  Pax0
Block1.03  -  1:02603 lbs  Cargo0
Departure Weather241459Z 00000KT 62SM SKC -4/-14 A2992
Destination WeatherCZGF 241544Z 00000KT 62SM SKC 23/13 A2992
Flight CommentsLeg 2 - 1S2 - CZGF